Terminal Aerodrome Forecast
Issued by NWS

Current Version | Previous Version | Graphics & Text | Print | Product List | Glossary On
Versions: 1 2 3 4 5 6 7 8 9 10 11 12 13 14 15 16 17
000
FTUS41 KILN 031100
TAFLCK
TAF
KLCK 031120Z 0312/0412 21002KT P6SM SCT250
     FM031300 21010KT P6SM FEW060 SCT250
     FM031800 21012KT P6SM SCT060 SCT200
     FM040000 18005KT P6SM SKC=

USA.gov is the U.S. government's official web portal to all federal, state and local government web resources and services.